createdAt,value
2019-01-26T00:00:33.340Z,9.08
2019-01-26T00:03:03.889Z,9.07
2019-01-26T00:05:34.356Z,9.02
2019-01-26T00:08:04.960Z,9.04
2019-01-26T00:10:35.613Z,9.04
2019-01-26T00:13:06.178Z,9.00
2019-01-26T00:15:36.724Z,8.91
2019-01-26T00:18:07.357Z,8.89
2019-01-26T00:20:37.816Z,8.86
2019-01-26T00:23:08.279Z,8.86
2019-01-26T00:25:38.844Z,8.82
2019-01-26T00:28:09.310Z,8.84
2019-01-26T00:30:39.904Z,8.83
2019-01-26T00:33:10.590Z,8.85
2019-01-26T00:35:41.136Z,8.84
2019-01-26T00:38:11.803Z,8.82
2019-01-26T00:40:42.318Z,8.83
2019-01-26T00:43:12.774Z,8.84
2019-01-26T00:45:43.271Z,8.89
2019-01-26T00:48:13.733Z,8.89
2019-01-26T00:50:44.235Z,8.97
2019-01-26T00:53:14.858Z,8.99
2019-01-26T00:55:45.324Z,9.01
2019-01-26T00:58:15.920Z,9.02
2019-01-26T01:00:46.433Z,8.99
2019-01-26T01:03:16.937Z,9.05
2019-01-26T01:05:47.437Z,9.10
2019-01-26T01:08:18.040Z,9.11
2019-01-26T01:10:48.512Z,9.19
2019-01-26T01:13:19.119Z,9.26
2019-01-26T01:15:49.724Z,9.20
2019-01-26T01:18:20.182Z,9.23
2019-01-26T01:20:50.857Z,9.10
2019-01-26T01:23:21.312Z,9.12
2019-01-26T01:25:51.793Z,8.99
2019-01-26T01:28:22.248Z,8.89
2019-01-26T01:30:52.744Z,8.99
2019-01-26T01:33:23.210Z,9.00
2019-01-26T01:35:53.708Z,9.07
2019-01-26T01:38:24.199Z,9.07
2019-01-26T01:40:54.752Z,9.15
2019-01-26T01:43:25.344Z,9.05
2019-01-26T01:45:55.832Z,9.00
2019-01-26T01:48:26.436Z,9.03
2019-01-26T01:50:56.901Z,9.05
2019-01-26T01:53:27.502Z,9.06
2019-01-26T01:55:57.959Z,9.09
2019-01-26T01:58:28.466Z,9.12
2019-01-26T02:00:58.935Z,8.41
2019-01-26T02:03:29.392Z,9.07
2019-01-26T02:05:59.884Z,9.03
2019-01-26T02:08:30.349Z,9.02
2019-01-26T02:11:00.849Z,8.93
2019-01-26T02:13:31.318Z,9.03
2019-01-26T02:16:01.872Z,9.00
2019-01-26T02:18:32.374Z,9.04
2019-01-26T02:21:05.019Z,9.06
2019-01-26T02:23:35.513Z,9.02
2019-01-26T02:26:06.176Z,9.08
2019-01-26T02:28:36.694Z,9.08
2019-01-26T02:31:07.399Z,9.15
2019-01-26T02:33:37.939Z,9.24
2019-01-26T02:36:08.448Z,9.25
2019-01-26T02:38:38.953Z,9.22
2019-01-26T02:41:09.506Z,9.27
2019-01-26T02:43:40.000Z,9.34
2019-01-26T02:46:10.499Z,9.39
2019-01-26T02:48:40.952Z,9.42
2019-01-26T02:51:11.547Z,9.38
2019-01-26T02:53:42.002Z,9.37
2019-01-26T02:56:12.610Z,9.44
2019-01-26T02:58:43.081Z,9.44
2019-01-26T03:01:13.543Z,9.40
2019-01-26T03:03:44.057Z,9.39
2019-01-26T03:06:14.527Z,9.28
2019-01-26T03:08:45.085Z,9.37
2019-01-26T03:11:15.578Z,9.31
2019-01-26T03:13:46.018Z,9.11
2019-01-26T03:16:16.513Z,9.26
2019-01-26T03:18:46.984Z,9.29
2019-01-26T03:21:17.552Z,9.27
2019-01-26T03:23:48.226Z,9.12
2019-01-26T03:26:18.711Z,9.15
2019-01-26T03:28:49.215Z,9.25
2019-01-26T03:31:19.678Z,9.24
2019-01-26T03:33:50.178Z,9.23
2019-01-26T03:36:23.635Z,9.21
2019-01-26T03:38:54.771Z,9.26
2019-01-26T03:41:25.369Z,9.20
2019-01-26T03:43:55.872Z,9.26
2019-01-26T03:46:26.335Z,9.19
2019-01-26T03:48:56.788Z,9.22
2019-01-26T03:51:27.246Z,9.28
2019-01-26T03:53:57.838Z,9.31
2019-01-26T03:56:28.406Z,9.31
2019-01-26T03:58:59.194Z,9.19
2019-01-26T04:01:29.760Z,9.25
2019-01-26T04:04:00.465Z,9.22
2019-01-26T04:06:31.069Z,9.22
2019-01-26T04:09:01.544Z,9.26
2019-01-26T04:11:32.041Z,9.28
2019-01-26T04:14:02.503Z,9.29
2019-01-26T04:16:32.999Z,9.35
2019-01-26T04:19:03.555Z,9.35
2019-01-26T04:21:34.040Z,9.28
2019-01-26T04:24:04.644Z,9.32
2019-01-26T04:26:35.133Z,9.35
2019-01-26T04:29:05.688Z,9.45
2019-01-26T04:31:36.186Z,9.48
2019-01-26T04:34:06.659Z,9.47
2019-01-26T04:36:37.166Z,9.50
2019-01-26T04:39:09.367Z,9.46
2019-01-26T04:41:39.827Z,9.46
2019-01-26T04:44:10.332Z,9.43
2019-01-26T04:46:40.820Z,9.49
2019-01-26T04:49:11.322Z,9.47
2019-01-26T04:51:41.779Z,9.47
2019-01-26T04:54:12.279Z,9.51
2019-01-26T04:56:42.743Z,9.53
2019-01-26T04:59:13.214Z,9.54
2019-01-26T05:01:43.771Z,9.50
2019-01-26T05:04:14.237Z,9.48
2019-01-26T05:06:44.733Z,9.48
2019-01-26T05:09:15.192Z,9.50
2019-01-26T05:11:45.681Z,9.55
2019-01-26T05:14:16.167Z,9.60
2019-01-26T05:16:46.627Z,9.63
2019-01-26T05:19:17.127Z,9.63
2019-01-26T05:21:47.585Z,9.64
2019-01-26T05:24:18.080Z,9.59
2019-01-26T05:26:48.531Z,9.53
2019-01-26T05:29:18.984Z,9.59
2019-01-26T05:31:49.466Z,9.57
2019-01-26T05:34:19.964Z,9.59
2019-01-26T05:36:50.428Z,9.60
2019-01-26T05:39:20.930Z,9.60
2019-01-26T05:41:51.391Z,9.60
2019-01-26T05:44:21.902Z,9.65
2019-01-26T05:46:52.572Z,9.62
2019-01-26T05:49:23.023Z,9.64
2019-01-26T05:51:53.521Z,9.66
2019-01-26T05:54:24.017Z,9.67
2019-01-26T05:56:54.518Z,9.68
2019-01-26T05:59:24.981Z,9.69
2019-01-26T06:01:55.479Z,9.73
2019-01-26T06:04:25.985Z,9.71
2019-01-26T06:06:56.489Z,9.66
2019-01-26T06:09:26.993Z,9.71
2019-01-26T06:11:57.450Z,9.71
2019-01-26T06:14:27.892Z,9.74
2019-01-26T06:16:58.403Z,9.03
2019-01-26T06:19:28.848Z,9.74
2019-01-26T06:21:59.300Z,9.74
2019-01-26T06:24:29.843Z,9.77
2019-01-26T06:27:00.305Z,9.70
2019-01-26T06:29:30.796Z,9.71
2019-01-26T06:32:01.260Z,9.78
2019-01-26T06:34:31.725Z,9.79
2019-01-26T06:37:02.192Z,9.79
2019-01-26T06:39:32.693Z,9.80
2019-01-26T06:42:03.152Z,9.75
2019-01-26T06:44:33.652Z,9.78
2019-01-26T06:47:04.103Z,9.69
2019-01-26T06:49:34.710Z,9.74
2019-01-26T06:52:05.491Z,9.71
2019-01-26T06:54:35.989Z,9.75
2019-01-26T06:57:06.564Z,9.75
2019-01-26T06:59:37.054Z,9.72
2019-01-26T07:02:08.001Z,9.77
2019-01-26T07:04:52.851Z,9.79
2019-01-26T07:07:23.310Z,9.14
2019-01-26T07:09:53.813Z,9.84
2019-01-26T07:12:24.324Z,9.79
2019-01-26T07:14:54.790Z,9.82
2019-01-26T07:17:25.256Z,9.83
2019-01-26T07:19:55.756Z,9.86
2019-01-26T07:22:26.215Z,9.86
2019-01-26T07:24:56.809Z,9.86
2019-01-26T07:27:27.272Z,9.89
2019-01-26T07:29:57.778Z,9.89
2019-01-26T07:32:28.237Z,9.83
2019-01-26T07:34:58.744Z,9.91
2019-01-26T07:37:29.192Z,9.92
2019-01-26T07:39:59.844Z,9.88
2019-01-26T07:42:30.320Z,9.82
2019-01-26T07:45:00.784Z,9.86
2019-01-26T07:47:31.286Z,9.78
2019-01-26T07:50:01.762Z,9.88
2019-01-26T07:52:32.273Z,9.93
2019-01-26T07:55:02.721Z,9.85
2019-01-26T07:57:33.199Z,9.89
2019-01-26T08:00:03.946Z,9.90
2019-01-26T08:02:34.478Z,9.89
2019-01-26T08:05:05.873Z,9.92
2019-01-26T08:07:36.346Z,9.90
2019-01-26T08:10:10.008Z,9.89
2019-01-26T08:12:40.461Z,9.91
2019-01-26T08:15:13.250Z,9.94
2019-01-26T08:17:43.794Z,9.92
2019-01-26T08:20:16.631Z,9.97
2019-01-26T08:22:47.235Z,9.90
2019-01-26T08:25:17.965Z,9.97
2019-01-26T08:27:48.522Z,10.03
2019-01-26T08:30:20.907Z,10.02
2019-01-26T08:32:51.657Z,10.05
2019-01-26T08:35:22.257Z,10.09
2019-01-26T08:37:52.861Z,10.07
2019-01-26T08:40:23.533Z,10.02
2019-01-26T08:42:54.142Z,10.07
2019-01-26T08:45:24.620Z,10.05
2019-01-26T08:47:55.231Z,10.08
2019-01-26T08:50:26.481Z,10.09
2019-01-26T08:52:56.941Z,10.06
2019-01-26T08:55:27.393Z,10.10
2019-01-26T08:57:57.999Z,10.05
2019-01-26T09:00:29.142Z,10.07
2019-01-26T09:03:18.449Z,10.11
2019-01-26T09:06:07.991Z,10.11
2019-01-26T09:08:38.718Z,10.14
2019-01-26T09:11:09.256Z,10.10
2019-01-26T09:13:39.763Z,10.02
2019-01-26T09:16:10.540Z,10.14
2019-01-26T09:18:41.015Z,10.15
2019-01-26T09:21:11.529Z,10.09
2019-01-26T09:23:42.098Z,10.15
2019-01-26T09:26:12.606Z,10.15
2019-01-26T09:28:43.066Z,10.19
2019-01-26T09:31:13.691Z,10.14
2019-01-26T09:33:44.169Z,10.18
2019-01-26T09:36:14.774Z,10.13
2019-01-26T09:38:45.237Z,10.11
2019-01-26T09:41:15.861Z,10.11
2019-01-26T09:43:46.465Z,10.12
2019-01-26T09:46:16.964Z,10.06
2019-01-26T09:48:47.420Z,9.62
2019-01-26T09:51:17.909Z,9.40
2019-01-26T09:53:48.359Z,9.32
2019-01-26T09:56:18.863Z,8.98
2019-01-26T09:58:49.336Z,8.68
2019-01-26T10:01:19.827Z,8.33
2019-01-26T10:03:50.331Z,7.90
2019-01-26T10:06:20.924Z,7.65
2019-01-26T10:08:51.408Z,7.17
2019-01-26T10:11:21.973Z,7.13
2019-01-26T10:13:52.469Z,7.05
2019-01-26T10:16:23.027Z,6.96
2019-01-26T10:18:54.027Z,6.79
2019-01-26T10:21:24.620Z,6.76
2019-01-26T10:23:55.077Z,6.68
2019-01-26T10:26:25.595Z,6.57
2019-01-26T10:28:56.104Z,6.56
2019-01-26T10:31:26.569Z,6.20
2019-01-26T10:33:57.064Z,6.09
2019-01-26T10:36:32.989Z,6.04
2019-01-26T10:39:09.246Z,6.14
2019-01-26T10:42:04.696Z,6.04
2019-01-26T10:44:35.822Z,5.99
2019-01-26T10:47:06.816Z,6.06
2019-01-26T10:49:37.278Z,6.13
2019-01-26T10:52:08.130Z,6.10
2019-01-26T10:54:38.678Z,5.97
2019-01-26T10:57:09.340Z,6.05
2019-01-26T10:59:39.930Z,6.23
2019-01-26T11:02:10.599Z,6.09
2019-01-26T11:04:41.061Z,5.99
2019-01-26T11:07:12.997Z,6.12
2019-01-26T11:09:43.531Z,6.15
2019-01-26T11:12:13.992Z,6.18
2019-01-26T11:14:44.588Z,6.18
2019-01-26T11:17:15.086Z,6.13
2019-01-26T11:19:45.584Z,6.07
2019-01-26T11:22:16.143Z,6.15
2019-01-26T11:24:46.645Z,6.27
2019-01-26T11:27:17.225Z,6.16
2019-01-26T11:29:47.745Z,6.24
2019-01-26T11:32:18.340Z,6.19
2019-01-26T11:34:48.803Z,6.03
2019-01-26T11:37:19.253Z,6.09
2019-01-26T11:39:57.203Z,6.02
2019-01-26T11:42:28.050Z,6.19
2019-01-26T11:45:17.384Z,6.04
2019-01-26T11:47:47.844Z,6.11
2019-01-26T11:50:24.208Z,6.14
2019-01-26T11:52:54.653Z,5.98
2019-01-26T11:55:36.516Z,6.21
2019-01-26T11:58:07.070Z,6.38
2019-01-26T12:01:05.498Z,6.21
2019-01-26T12:03:53.228Z,6.32
2019-01-26T12:06:33.080Z,6.26
2019-01-26T12:09:05.879Z,6.18
2019-01-26T12:11:37.481Z,6.01
2019-01-26T12:14:08.079Z,5.95
2019-01-26T12:16:38.542Z,5.91
2019-01-26T12:19:09.035Z,5.77
2019-01-26T12:21:39.487Z,5.69
2019-01-26T12:24:09.942Z,5.60
2019-01-26T12:26:40.446Z,5.78
2019-01-26T12:29:10.902Z,5.80
2019-01-26T12:31:41.398Z,5.61
2019-01-26T12:34:11.850Z,5.75
2019-01-26T12:36:42.446Z,5.72
2019-01-26T12:39:13.300Z,5.72
2019-01-26T12:41:43.764Z,5.76
2019-01-26T12:44:14.206Z,5.70
2019-01-26T12:46:44.808Z,5.79
2019-01-26T12:49:15.357Z,5.80
2019-01-26T12:51:45.956Z,5.95
2019-01-26T12:54:16.471Z,5.63
2019-01-26T12:56:46.921Z,5.67
2019-01-26T12:59:17.388Z,5.49
2019-01-26T13:01:47.980Z,5.39
2019-01-26T13:04:18.530Z,5.48
2019-01-26T13:06:49.046Z,5.64
2019-01-26T13:09:19.495Z,5.80
2019-01-26T13:11:50.000Z,5.87
2019-01-26T13:14:20.502Z,5.81
2019-01-26T13:16:51.061Z,5.79
2019-01-26T13:19:21.902Z,5.59
2019-01-26T13:21:52.359Z,5.63
2019-01-26T13:24:22.851Z,5.55
2019-01-26T13:26:53.304Z,5.37
2019-01-26T13:29:23.941Z,5.54
2019-01-26T13:31:54.398Z,5.49
2019-01-26T13:34:24.875Z,5.42
2019-01-26T13:36:55.325Z,5.23
2019-01-26T13:39:25.834Z,5.44
2019-01-26T13:41:56.295Z,5.44
2019-01-26T13:44:26.807Z,5.41
2019-01-26T13:46:57.252Z,5.24
2019-01-26T13:49:27.710Z,5.28
2019-01-26T13:51:58.163Z,5.24
2019-01-26T13:54:28.655Z,5.29
2019-01-26T13:56:59.155Z,5.32
2019-01-26T13:59:29.666Z,5.21
2019-01-26T14:02:00.127Z,5.22
2019-01-26T14:04:30.619Z,5.16
2019-01-26T14:07:01.230Z,5.22
2019-01-26T14:09:31.687Z,5.26
2019-01-26T14:12:02.181Z,5.15
2019-01-26T14:14:32.635Z,5.19
2019-01-26T14:17:03.235Z,5.12
2019-01-26T14:19:33.828Z,5.16
2019-01-26T14:22:04.498Z,5.22
2019-01-26T14:24:35.001Z,5.12
2019-01-26T14:27:05.601Z,5.06
2019-01-26T14:29:36.110Z,5.11
2019-01-26T14:32:06.773Z,4.93
2019-01-26T14:34:37.276Z,4.95
2019-01-26T14:37:07.790Z,4.95
2019-01-26T14:39:39.791Z,4.92
2019-01-26T14:42:10.445Z,4.95
2019-01-26T14:44:40.948Z,4.80
2019-01-26T14:47:11.463Z,4.86
2019-01-26T14:49:42.057Z,4.77
2019-01-26T14:52:12.602Z,4.90
2019-01-26T14:54:43.064Z,4.81
2019-01-26T14:57:13.580Z,4.93
2019-01-26T14:59:44.071Z,4.97
2019-01-26T15:02:14.526Z,4.84
2019-01-26T15:04:44.988Z,4.70
2019-01-26T15:07:15.454Z,4.65
2019-01-26T15:09:45.993Z,4.55
2019-01-26T15:12:16.495Z,4.54
2019-01-26T15:14:47.005Z,4.56
2019-01-26T15:17:17.514Z,4.51
2019-01-26T15:19:48.067Z,4.41
2019-01-26T15:22:18.540Z,4.48
2019-01-26T15:24:49.111Z,4.60
2019-01-26T15:27:19.610Z,4.54
2019-01-26T15:29:50.065Z,4.56
2019-01-26T15:32:20.624Z,4.61
2019-01-26T15:34:51.220Z,4.63
2019-01-26T15:37:21.718Z,4.65
2019-01-26T15:39:52.224Z,4.38
2019-01-26T15:42:22.725Z,4.48
2019-01-26T15:44:53.216Z,4.45
2019-01-26T15:47:23.684Z,4.44
2019-01-26T15:49:54.177Z,4.36
2019-01-26T15:52:24.628Z,4.60
2019-01-26T15:54:55.099Z,4.59
2019-01-26T15:57:25.684Z,4.55
2019-01-26T15:59:56.134Z,4.63
2019-01-26T16:02:26.686Z,4.68
2019-01-26T16:04:57.172Z,4.57
2019-01-26T16:07:27.724Z,4.59
2019-01-26T16:09:58.223Z,4.64
2019-01-26T16:12:28.719Z,4.52
2019-01-26T16:14:59.212Z,4.38
2019-01-26T16:17:29.680Z,4.51
2019-01-26T16:20:00.258Z,4.53
2019-01-26T16:22:30.718Z,4.48
2019-01-26T16:25:01.192Z,4.43
2019-01-26T16:27:31.726Z,4.24
2019-01-26T16:30:02.180Z,4.44
2019-01-26T16:32:32.811Z,4.43
2019-01-26T16:35:03.374Z,4.48
2019-01-26T16:37:33.884Z,4.48
2019-01-26T16:40:05.428Z,4.53
2019-01-26T16:42:35.931Z,4.47
2019-01-26T16:45:08.671Z,4.32
2019-01-26T16:47:39.125Z,4.32
2019-01-26T16:50:12.848Z,4.37
2019-01-26T16:52:43.373Z,4.49
2019-01-26T16:55:14.239Z,4.53
2019-01-26T16:57:44.788Z,4.39
2019-01-26T17:00:21.463Z,4.45
2019-01-26T17:02:52.017Z,4.38
2019-01-26T17:05:25.875Z,4.32
2019-01-26T17:07:54.779Z,4.34
2019-01-26T17:10:25.586Z,4.34
2019-01-26T17:12:56.189Z,4.35
2019-01-26T17:15:26.650Z,4.39
2019-01-26T17:17:57.249Z,4.40
2019-01-26T17:20:34.890Z,4.43
2019-01-26T17:23:01.570Z,4.45
2019-01-26T17:25:32.172Z,4.38
2019-01-26T17:28:02.633Z,3.90
2019-01-26T17:30:36.328Z,4.45
2019-01-26T17:33:07.768Z,4.40
2019-01-26T17:35:38.584Z,4.44
2019-01-26T17:38:09.286Z,4.47
2019-01-26T17:40:39.739Z,4.40
2019-01-26T17:43:10.234Z,4.34
2019-01-26T17:45:40.681Z,4.38
2019-01-26T17:48:11.389Z,4.37
2019-01-26T17:50:42.547Z,4.35
2019-01-26T17:53:13.142Z,4.28
2019-01-26T17:55:43.655Z,4.36
2019-01-26T17:58:14.119Z,4.37
2019-01-26T18:01:01.709Z,4.46
2019-01-26T18:03:32.208Z,4.39
2019-01-26T18:06:02.671Z,4.39
2019-01-26T18:08:33.160Z,4.42
2019-01-26T18:11:03.618Z,4.41
2019-01-26T18:13:34.208Z,4.38
2019-01-26T18:16:04.672Z,4.31
2019-01-26T18:18:35.255Z,4.19
2019-01-26T18:21:05.960Z,4.32
2019-01-26T18:23:36.452Z,4.35
2019-01-26T18:26:07.532Z,4.35
2019-01-26T18:28:38.048Z,4.41
2019-01-26T18:31:08.646Z,4.37
2019-01-26T18:33:39.113Z,4.41
2019-01-26T18:36:09.679Z,4.32
2019-01-26T18:38:40.148Z,4.36
2019-01-26T18:41:10.824Z,4.31
2019-01-26T18:43:41.281Z,4.39
2019-01-26T18:46:11.893Z,4.38
2019-01-26T18:48:42.388Z,4.26
2019-01-26T18:51:13.764Z,4.34
2019-01-26T18:53:44.235Z,4.25
2019-01-26T18:56:14.703Z,4.21
2019-01-26T18:58:45.167Z,4.23
2019-01-26T19:01:15.678Z,4.20
2019-01-26T19:04:17.450Z,4.25
2019-01-26T19:06:47.956Z,4.23
2019-01-26T19:09:18.421Z,4.39
2019-01-26T19:11:48.913Z,4.30
2019-01-26T19:14:19.356Z,4.38
2019-01-26T19:16:49.847Z,4.41
2019-01-26T19:19:20.450Z,4.48
2019-01-26T19:21:51.053Z,4.46
2019-01-26T19:24:21.600Z,4.44
2019-01-26T19:26:52.102Z,4.43
2019-01-26T19:29:22.560Z,4.62
2019-01-26T19:31:53.170Z,4.67
2019-01-26T19:34:23.627Z,4.59
2019-01-26T19:36:54.222Z,4.48
2019-01-26T19:39:24.680Z,4.52
2019-01-26T19:41:55.185Z,4.48
2019-01-26T19:44:25.649Z,4.41
2019-01-26T19:46:56.157Z,4.46
2019-01-26T19:49:26.615Z,4.46
2019-01-26T19:51:57.216Z,4.59
2019-01-26T19:54:27.687Z,3.89
2019-01-26T19:56:58.182Z,4.58
2019-01-26T19:59:28.642Z,4.57
2019-01-26T20:01:59.445Z,4.70
2019-01-26T20:04:30.085Z,4.70
2019-01-26T20:07:00.662Z,4.77
2019-01-26T20:09:31.173Z,4.77
2019-01-26T20:12:01.830Z,4.75
2019-01-26T20:14:32.284Z,4.71
2019-01-26T20:17:03.015Z,4.83
2019-01-26T20:19:33.611Z,4.83
2019-01-26T20:22:04.201Z,4.78
2019-01-26T20:24:34.813Z,4.72
2019-01-26T20:27:05.473Z,4.76
2019-01-26T20:29:35.937Z,4.78
2019-01-26T20:32:06.386Z,4.73
2019-01-26T20:34:36.901Z,4.72
2019-01-26T20:37:07.412Z,4.66
2019-01-26T20:39:37.909Z,4.79
2019-01-26T20:42:08.373Z,4.80
2019-01-26T20:44:38.832Z,4.85
2019-01-26T20:47:09.327Z,4.77
2019-01-26T20:49:39.821Z,4.76
2019-01-26T20:52:10.273Z,4.83
2019-01-26T20:54:40.767Z,4.76
2019-01-26T20:57:11.231Z,4.88
2019-01-26T20:59:41.735Z,4.06
2019-01-26T21:02:12.200Z,4.88
2019-01-26T21:04:42.708Z,4.83
2019-01-26T21:07:20.296Z,4.79
2019-01-26T21:09:50.788Z,4.68
2019-01-26T21:12:21.239Z,4.72
2019-01-26T21:14:51.750Z,4.85
2019-01-26T21:17:23.511Z,4.90
2019-01-26T21:19:54.073Z,4.95
2019-01-26T21:22:24.552Z,4.95
2019-01-26T21:24:55.042Z,4.82
2019-01-26T21:27:25.532Z,4.94
2019-01-26T21:29:56.040Z,4.98
2019-01-26T21:32:26.498Z,4.99
2019-01-26T21:34:56.966Z,5.09
2019-01-26T21:37:27.465Z,4.85
2019-01-26T21:39:57.941Z,4.80
2019-01-26T21:42:28.408Z,4.79
2019-01-26T21:44:59.013Z,4.86
2019-01-26T21:47:29.460Z,4.86
2019-01-26T21:49:59.948Z,4.71
2019-01-26T21:52:30.415Z,4.86
2019-01-26T21:55:00.922Z,4.79
2019-01-26T21:57:31.378Z,4.94
2019-01-26T22:00:01.868Z,4.95
2019-01-26T22:02:32.324Z,4.91
2019-01-26T22:05:02.825Z,4.76
2019-01-26T22:07:33.281Z,4.74
2019-01-26T22:10:05.069Z,4.79
2019-01-26T22:12:35.581Z,4.63
2019-01-26T22:15:08.357Z,4.69
2019-01-26T22:17:38.866Z,4.83
2019-01-26T22:20:12.207Z,4.68
2019-01-26T22:22:42.776Z,4.68
2019-01-26T22:25:13.981Z,4.56
2019-01-26T22:27:44.540Z,4.77
2019-01-26T22:30:26.597Z,4.67
2019-01-26T22:32:57.154Z,4.72
2019-01-26T22:35:27.759Z,4.67
2019-01-26T22:37:58.800Z,4.72
2019-01-26T22:40:31.338Z,4.69
2019-01-26T22:43:02.032Z,4.70
2019-01-26T22:45:32.706Z,4.79
2019-01-26T22:48:03.190Z,4.82
2019-01-26T22:50:33.890Z,4.95
2019-01-26T22:53:04.649Z,4.83
2019-01-26T22:55:35.342Z,4.68
2019-01-26T22:58:06.441Z,4.84
2019-01-26T23:01:09.243Z,4.65
2019-01-26T23:04:07.050Z,4.77
2019-01-26T23:07:13.735Z,4.71
2019-01-26T23:10:19.320Z,4.65
2019-01-26T23:13:01.158Z,4.66
2019-01-26T23:16:11.021Z,4.81
2019-01-26T23:19:09.004Z,4.78
2019-01-26T23:22:33.993Z,4.72
2019-01-26T23:25:30.908Z,4.66
2019-01-26T23:28:25.889Z,4.75
2019-01-26T23:31:16.816Z,4.67
2019-01-26T23:33:49.819Z,4.76
2019-01-26T23:36:20.531Z,4.13
2019-01-26T23:38:52.421Z,4.28
2019-01-26T23:41:22.935Z,4.38
2019-01-26T23:43:54.619Z,4.43
2019-01-26T23:46:25.181Z,4.02
2019-01-26T23:48:55.679Z,4.00
2019-01-26T23:51:26.235Z,4.12
2019-01-26T23:53:56.743Z,4.03
2019-01-26T23:56:27.205Z,3.92
2019-01-26T23:58:57.812Z,3.98
